Time;durP1;ratioP1;P1;durP2;ratioP2;P2;SDS_P1;SDS_P2;PMS_P1;PMS_P2;Temp;Humidity;BMP_temperature;BMP_pressure;BME280_temperature;BME280_humidity;BME280_pressure;Samples;Min_cycle;Max_cycle;Signal;HPM_P1;HPM_P2
2021/03/12 00:01:36;;;;;;;32.30;21.62;;;;;;;4.61;42.55;93838.39;1792213;78;21201;-61
2021/03/12 00:04:04;;;;;;;30.52;20.15;;;;;;;4.58;42.72;93841.98;1792201;79;21174;-60
2021/03/12 00:06:32;;;;;;;26.57;19.65;;;;;;;4.60;42.45;93849.13;1792341;80;21488;-59
2021/03/12 00:09:00;;;;;;;28.85;18.65;;;;;;;4.61;42.56;93854.73;1792215;80;21946;-60
2021/03/12 00:11:29;;;;;;;29.65;20.90;;;;;;;4.58;42.93;93848.79;1790521;79;21055;-60
2021/03/12 00:13:57;;;;;;;30.52;20.08;;;;;;;4.50;43.07;93833.85;1792262;78;21200;-61
2021/03/12 00:16:25;;;;;;;30.30;20.75;;;;;;;4.42;43.66;93839.30;1772448;80;21136;-60
2021/03/12 00:18:53;;;;;;;29.45;20.32;;;;;;;4.33;43.54;93825.56;1792232;80;21199;-61
2021/03/12 00:21:21;;;;;;;32.93;20.92;;;;;;;4.36;43.76;93832.86;1792283;80;21055;-60
2021/03/12 00:23:49;;;;;;;26.15;18.17;;;;;;;4.35;44.03;93832.70;1792411;79;21051;-60
2021/03/12 00:26:18;;;;;;;29.63;19.85;;;;;;;4.39;43.71;93827.17;1792510;80;22247;-61
2021/03/12 00:28:46;;;;;;;39.95;21.55;;;;;;;4.35;43.75;93839.50;1792338;79;21123;-60
2021/03/12 00:31:14;;;;;;;27.17;21.05;;;;;;;4.31;43.96;93830.67;1792348;79;21142;-61
2021/03/12 00:33:42;;;;;;;31.50;21.40;;;;;;;4.30;44.04;93835.95;1792372;78;21072;-60
2021/03/12 00:36:12;;;;;;;30.02;20.68;;;;;;;4.28;44.26;93821.98;1792446;80;21067;-60
2021/03/12 00:38:40;;;;;;;26.95;18.55;;;;;;;4.23;43.95;93804.81;1792471;80;22169;-60
2021/03/12 00:41:08;;;;;;;26.23;18.00;;;;;;;4.16;43.82;93809.68;1792259;79;21067;-60
2021/03/12 00:43:49;;;;;;;25.20;18.92;;;;;;;4.12;44.18;93807.66;1890057;75;22280;-60
2021/03/12 00:46:19;;;;;;;24.32;18.32;;;;;;;3.99;43.97;93786.41;1858788;77;21651;-60
2021/03/12 00:48:47;;;;;;;27.27;19.40;;;;;;;3.92;44.44;93782.53;1877870;76;21182;-60
2021/03/12 00:51:15;;;;;;;27.62;19.70;;;;;;;3.88;44.33;93775.81;1881579;76;20948;-61
2021/03/12 00:53:51;;;;;;;28.70;20.95;;;;;;;3.84;44.32;93771.06;1798440;79;21572;-60
2021/03/12 00:56:19;;;;;;;27.75;19.65;;;;;;;3.85;44.52;93780.00;1822887;78;21044;-60
2021/03/12 00:58:47;;;;;;;23.15;17.23;;;;;;;3.85;44.44;93773.95;1822853;78;21096;-61
2021/03/12 01:01:16;;;;;;;26.55;19.65;;;;;;;3.87;44.59;93772.17;1807137;79;21261;-60
2021/03/12 01:03:44;;;;;;;29.12;19.73;;;;;;;3.83;44.46;93776.95;1822762;78;20992;-60
2021/03/12 01:06:13;;;;;;;28.73;19.25;;;;;;;3.81;44.55;93784.74;1807124;79;20989;-60
2021/03/12 01:08:49;;;;;;;26.40;18.27;;;;;;;3.83;44.81;93780.42;1822877;78;21040;-61
2021/03/12 01:11:18;;;;;;;29.27;19.23;;;;;;;3.82;44.76;93777.53;1804423;79;21484;-60
2021/03/12 01:13:46;;;;;;;28.85;19.17;;;;;;;3.79;44.75;93769.45;1822917;78;22310;-60
2021/03/12 01:16:14;;;;;;;25.57;18.48;;;;;;;3.80;44.72;93769.03;1822778;78;21119;-60
2021/03/12 01:18:43;;;;;;;22.32;18.27;;;;;;;3.87;44.74;93785.16;1807083;78;21131;-62
2021/03/12 01:21:16;;;;;;;33.05;20.55;;;;;;;3.96;44.73;93785.91;1822428;78;21052;-60
2021/03/12 01:23:44;;;;;;;31.87;20.65;;;;;;;4.03;44.77;93768.81;1822818;78;21103;-60
2021/03/12 01:26:13;;;;;;;27.95;19.00;;;;;;;4.10;44.77;93767.87;1807087;78;21443;-60
2021/03/12 01:28:45;;;;;;;;;;;;;;;4.17;44.51;93773.11;1824415;78;21099;-60
2021/03/12 01:31:13;;;;;;;23.22;17.17;;;;;;;4.20;44.65;93753.97;1822842;78;20212;-61
2021/03/12 01:33:49;;;;;;;26.90;19.07;;;;;;;4.22;44.72;93744.77;1805318;79;21087;-60
2021/03/12 01:36:18;;;;;;;27.40;18.00;;;;;;;4.24;44.61;93736.94;1822824;78;21044;-59
2021/03/12 01:38:47;;;;;;;19.80;14.75;;;;;;;4.30;44.28;93733.09;1806495;79;21163;-60
2021/03/12 01:41:17;;;;;;;27.60;18.25;;;;;;;4.35;44.61;93720.30;1822690;78;21075;-61
2021/03/12 01:43:46;;;;;;;27.75;18.35;;;;;;;4.41;44.46;93713.16;1809535;79;21068;-61
2021/03/12 01:46:15;;;;;;;23.35;17.20;;;;;;;4.51;44.41;93712.84;1822848;78;21117;-60
2021/03/12 01:48:43;;;;;;;26.75;17.82;;;;;;;4.61;44.32;93706.30;1822800;78;21108;-60
2021/03/12 01:51:12;;;;;;;40.88;24.75;;;;;;;4.68;44.55;93692.49;1810177;79;21422;-59
2021/03/12 01:53:40;;;;;;;31.87;21.20;;;;;;;4.66;44.71;93685.36;1822521;78;21075;-60
2021/03/12 01:56:08;;;;;;;30.15;21.02;;;;;;;4.69;44.55;93675.53;1792582;78;21064;-60
2021/03/12 01:58:38;;;;;;;30.48;20.30;;;;;;;4.77;44.91;93676.25;1818448;78;21531;-60
2021/03/12 02:01:08;;;;;;;39.75;25.17;;;;;;;4.86;45.18;93672.28;1809695;79;21059;-59
2021/03/12 02:03:44;;;;;;;36.83;24.25;;;;;;;4.82;45.11;93661.33;1820543;78;21214;-60
2021/03/12 02:06:14;;;;;;;40.88;25.50;;;;;;;4.72;45.49;93652.87;1809068;79;21147;-59
2021/03/12 02:08:43;;;;;;;44.48;26.55;;;;;;;4.77;45.67;93657.80;1822226;78;21103;-60
2021/03/12 02:11:18;;;;;;;33.13;21.05;;;;;;;4.87;45.68;93669.72;1809645;79;21072;-60
2021/03/12 02:13:54;;;;;;;35.35;22.17;;;;;;;4.89;45.87;93661.09;1822224;78;21072;-61
2021/03/12 02:16:45;;;;;;;29.45;19.42;;;;;;;4.79;45.90;93658.13;1822266;78;21197;-61
2021/03/12 02:19:48;;;;;;;26.80;18.77;;;;;;;4.74;46.60;93654.55;1822168;78;21147;-60
2021/03/12 02:22:16;;;;;;;30.43;20.72;;;;;;;4.71;47.06;93654.07;1809563;79;21635;-60
2021/03/12 02:24:56;;;;;;;29.12;19.73;;;;;;;4.58;46.97;93658.77;1822197;78;21135;-60
2021/03/12 02:27:37;;;;;;;25.27;18.23;;;;;;;4.53;46.86;93660.66;1890056;76;22663;-60
2021/03/12 02:30:07;;;;;;;39.33;22.87;;;;;;;4.49;46.97;93662.14;1855548;77;21021;-60
2021/03/12 02:32:39;;;;;;;33.75;23.47;;;;;;;4.52;47.61;93669.44;1860791;77;21184;-60
2021/03/12 02:35:12;;;;;;;;;;;;;;;4.65;47.45;93675.66;1858453;77;21175;-60
2021/03/12 02:37:39;;;;;;;28.30;20.40;;;;;;;4.78;46.77;93654.62;1860986;77;20185;-60
2021/03/12 02:40:09;;;;;;;40.08;25.20;;;;;;;4.87;47.27;93664.27;1827860;77;20926;-60
2021/03/12 02:42:40;;;;;;;40.40;24.10;;;;;;;4.95;46.79;93666.18;1860115;77;21172;-60
2021/03/12 02:45:12;;;;;;;32.73;21.12;;;;;;;5.03;46.60;93646.45;1860910;77;21190;-60
2021/03/12 02:47:41;;;;;;;33.48;21.87;;;;;;;5.02;46.76;93633.23;1835107;76;20981;-60
2021/03/12 02:50:12;;;;;;;32.33;21.25;;;;;;;4.96;46.66;93632.28;1881355;76;21146;-60
2021/03/12 02:52:40;;;;;;;31.68;21.33;;;;;;;4.91;46.05;93630.86;1881759;76;21539;-60
2021/03/12 02:55:10;;;;;;;26.40;18.45;;;;;;;4.83;46.49;93630.91;1850155;76;21571;-60
2021/03/12 02:57:48;;;;;;;36.83;21.60;;;;;;;4.78;46.90;93634.19;1888796;76;22558;-60
2021/03/12 03:00:18;;;;;;;26.60;20.08;;;;;;;4.59;47.18;93633.06;1775417;80;21052;-60
2021/03/12 03:02:48;;;;;;;27.58;19.32;;;;;;;4.54;47.22;93628.92;1771158;81;21144;-61
2021/03/12 03:05:18;;;;;;;27.60;19.92;;;;;;;4.60;46.95;93648.20;1746806;80;21516;-61
2021/03/12 03:07:49;;;;;;;30.17;19.60;;;;;;;4.66;46.78;93648.59;1772895;81;21072;-60
2021/03/12 03:10:18;;;;;;;32.90;20.57;;;;;;;4.68;46.90;93647.55;1775377;80;21492;-60
2021/03/12 03:12:46;;;;;;;28.80;20.35;;;;;;;4.69;46.65;93643.63;1746073;81;21084;-60
2021/03/12 03:15:15;;;;;;;29.57;19.50;;;;;;;4.73;46.57;93636.10;1775307;80;21416;-60
2021/03/12 03:17:43;;;;;;;28.57;21.40;;;;;;;4.79;46.43;93639.05;1773851;81;21005;-62
2021/03/12 03:20:15;;;;;;;30.17;21.60;;;;;;;4.85;46.79;93620.94;1775299;80;21024;-60
2021/03/12 03:22:45;;;;;;;31.20;22.95;;;;;;;4.80;47.19;93627.70;1773905;81;21175;-60
2021/03/12 03:25:14;;;;;;;38.33;25.12;;;;;;;4.81;47.01;93619.69;1775281;80;21115;-60
2021/03/12 03:27:42;;;;;;;29.82;21.82;;;;;;;4.80;47.18;93626.95;1773926;81;21390;-60
2021/03/12 03:30:13;;;;;;;24.60;19.60;;;;;;;4.80;46.79;93631.04;1747098;80;21174;-61
2021/03/12 03:32:42;;;;;;;30.75;21.85;;;;;;;4.85;46.66;93643.52;1773797;81;21123;-60
2021/03/12 03:35:12;;;;;;;26.77;19.37;;;;;;;4.91;46.36;93665.50;1775265;80;21225;-60
2021/03/12 03:37:41;;;;;;;26.57;19.57;;;;;;;5.01;46.16;93676.07;1773983;81;21591;-61
2021/03/12 03:40:11;;;;;;;23.75;17.75;;;;;;;5.07;46.10;93674.34;1775270;80;21203;-61
2021/03/12 03:42:41;;;;;;;28.40;21.17;;;;;;;5.10;46.11;93689.81;1773881;81;21168;-60
2021/03/12 03:45:12;;;;;;;30.70;22.58;;;;;;;5.14;45.83;93703.34;1775274;80;21072;-61
2021/03/12 03:47:41;;;;;;;45.25;27.05;;;;;;;5.20;45.99;93716.57;1763131;81;21202;-61
2021/03/12 03:50:11;;;;;;;39.15;21.27;;;;;;;5.21;45.70;93717.52;1775297;80;21076;-60
2021/03/12 03:52:39;;;;;;;29.07;18.48;;;;;;;5.19;45.63;93730.04;1743315;82;22115;-61
2021/03/12 03:55:11;;;;;;;32.30;21.57;;;;;;;5.14;45.68;93715.60;1750188;80;21094;-58
2021/03/12 03:57:39;;;;;;;31.80;21.40;;;;;;;5.06;45.90;93717.78;1747583;80;21080;-60
2021/03/12 04:00:10;;;;;;;25.05;19.60;;;;;;;5.02;46.16;93718.50;1743195;82;21111;-59
2021/03/12 04:02:46;;;;;;;27.42;19.00;;;;;;;5.04;46.21;93717.46;1775125;80;21064;-60
2021/03/12 04:05:16;;;;;;;28.52;20.30;;;;;;;5.08;46.23;93705.84;1743325;82;21224;-61
2021/03/12 04:07:46;;;;;;;31.40;22.58;;;;;;;5.06;46.54;93716.42;1747107;80;21103;-60
2021/03/12 04:10:15;;;;;;;23.38;17.77;;;;;;;5.06;46.95;93715.06;1742655;82;21159;-60
2021/03/12 04:12:44;;;;;;;25.70;20.17;;;;;;;5.03;47.22;93717.30;1774663;80;21139;-61
2021/03/12 04:15:15;;;;;;;26.62;19.70;;;;;;;4.93;47.31;93704.00;1742707;82;21064;-60
2021/03/12 04:17:42;;;;;;;26.50;19.17;;;;;;;4.90;47.61;93710.30;1774662;80;21262;-61
2021/03/12 04:20:13;;;;;;;26.17;19.00;;;;;;;4.85;47.63;93703.45;1742615;82;21183;-61
2021/03/12 04:22:40;;;;;;;21.57;17.98;;;;;;;4.85;47.92;93684.38;1747172;80;21501;-60
2021/03/12 04:25:10;;;;;;;24.45;18.48;;;;;;;4.87;47.68;93685.30;1692508;82;21084;-60
2021/03/12 04:27:38;;;;;;;23.00;18.60;;;;;;;4.95;47.68;93692.81;1774680;80;21095;-61
2021/03/12 04:30:08;;;;;;;25.27;18.20;;;;;;;5.04;47.57;93679.30;1742758;82;22137;-60
2021/03/12 04:32:38;;;;;;;21.85;16.70;;;;;;;5.07;47.35;93673.56;1746658;80;21497;-61
2021/03/12 04:35:08;;;;;;;25.17;17.67;;;;;;;5.08;47.52;93658.15;1715214;82;21075;-60
2021/03/12 04:37:37;;;;;;;26.90;19.32;;;;;;;5.07;47.70;93660.71;1746455;80;21081;-60
2021/03/12 04:40:08;;;;;;;23.35;18.77;;;;;;;5.08;47.61;93645.88;1742661;82;21104;-61
2021/03/12 04:42:38;;;;;;;28.47;19.98;;;;;;;5.08;47.80;93639.66;1749628;80;21143;-61
2021/03/12 04:45:09;;;;;;;32.70;21.15;;;;;;;5.05;47.92;93626.32;1747212;80;21103;-61
2021/03/12 04:47:38;;;;;;;34.45;21.60;;;;;;;5.12;47.96;93628.80;1742370;81;21088;-61
2021/03/12 04:50:09;;;;;;;26.27;19.17;;;;;;;5.22;47.77;93638.61;1774640;80;21056;-61
2021/03/12 04:52:39;;;;;;;;;;;;;;;5.32;47.52;93647.80;1718061;82;21127;-60
2021/03/12 04:55:15;;;;;;;32.00;22.37;;;;;;;5.36;47.50;93641.63;1777189;80;21385;-60
2021/03/12 04:57:44;;;;;;;41.63;23.83;;;;;;;5.30;47.54;93635.21;1769360;80;21131;-60
2021/03/12 05:00:15;;;;;;;33.10;21.80;;;;;;;5.23;47.99;93621.05;1714095;82;21164;-61
2021/03/12 05:02:44;;;;;;;29.50;19.27;;;;;;;5.17;48.02;93618.70;1766840;81;21152;-60
2021/03/12 05:05:14;;;;;;;31.90;18.85;;;;;;;5.19;47.96;93613.57;1767546;81;21120;-60
2021/03/12 05:07:43;;;;;;;25.77;18.17;;;;;;;5.16;48.21;93600.08;1737183;82;22118;-60
2021/03/12 05:10:19;;;;;;;25.43;18.32;;;;;;;5.08;48.43;93599.55;1766605;81;21080;-61
2021/03/12 05:12:47;;;;;;;25.82;18.57;;;;;;;5.08;48.76;93587.28;1767527;81;21064;-61
2021/03/12 05:15:17;;;;;;;24.50;17.60;;;;;;;5.09;48.86;93570.31;1734738;82;21076;-59
2021/03/12 05:17:46;;;;;;;25.45;18.45;;;;;;;5.15;48.97;93581.59;1767525;81;21108;-61
2021/03/12 05:20:16;;;;;;;22.75;18.55;;;;;;;5.20;48.92;93571.51;1767508;81;21273;-60
2021/03/12 05:22:44;;;;;;;50.85;23.22;;;;;;;5.21;49.16;93568.16;1737036;82;21151;-61
2021/03/12 05:25:12;;;;;;;83.05;24.82;;;;;;;5.19;49.33;93547.41;1767515;81;21108;-61
2021/03/12 05:27:40;;;;;;;33.25;24.87;;;;;;;5.24;49.10;93551.70;1767481;81;21159;-60
2021/03/12 05:30:11;;;;;;;33.28;23.20;;;;;;;5.30;48.96;93549.33;1737108;82;21084;-61
2021/03/12 05:32:41;;;;;;;42.62;27.73;;;;;;;5.35;48.99;93543.30;1767540;81;21529;-60
2021/03/12 05:35:11;;;;;;;40.33;27.02;;;;;;;5.47;48.85;93545.81;1767519;80;21092;-60
2021/03/12 05:37:39;;;;;;;52.60;33.00;;;;;;;5.64;48.49;93540.33;1737047;82;21067;-61
2021/03/12 05:40:10;;;;;;;166.62;104.65;;;;;;;5.80;48.59;93548.34;1767487;81;21040;-60
2021/03/12 05:42:42;;;;;;;114.82;64.47;;;;;;;5.85;48.89;93547.18;1767595;81;21088;-61
2021/03/12 05:45:12;;;;;;;132.55;50.85;;;;;;;5.84;48.79;93525.78;1737120;82;21215;-60
2021/03/12 05:47:42;;;;;;;88.07;49.03;;;;;;;5.70;48.74;93522.95;1766372;81;21135;-61
2021/03/12 05:50:12;;;;;;;73.10;39.78;;;;;;;5.62;48.87;93501.83;1767512;81;21036;-61
2021/03/12 05:52:41;;;;;;;76.45;40.15;;;;;;;5.57;49.32;93481.33;1737130;82;21504;-60
2021/03/12 05:55:12;;;;;;;64.37;33.95;;;;;;;5.50;49.57;93474.02;1767517;81;21188;-60
2021/03/12 05:57:40;;;;;;;43.90;24.47;;;;;;;5.54;49.40;93465.09;1724662;80;21102;-61
2021/03/12 06:00:10;;;;;;;82.95;50.28;;;;;;;5.56;49.13;93485.27;1756092;81;21072;-61
2021/03/12 06:02:41;;;;;;;59.20;37.63;;;;;;;5.56;49.62;93488.00;1755787;81;21207;-61
2021/03/12 06:05:12;;;;;;;47.08;31.02;;;;;;;5.49;50.23;93496.45;1756145;81;21233;-60
2021/03/12 06:07:40;;;;;;;50.20;30.92;;;;;;;5.48;50.33;93494.16;1756258;81;21626;-61
2021/03/12 06:10:10;;;;;;;46.88;30.08;;;;;;;5.46;50.31;93484.30;1756166;81;21366;-61
2021/03/12 06:12:38;;;;;;;83.60;43.33;;;;;;;5.52;50.26;93475.69;1756094;81;21083;-60
2021/03/12 06:15:09;;;;;;;56.50;35.50;;;;;;;5.63;50.12;93467.89;1756133;81;21079;-61
2021/03/12 06:17:44;;;;;;;86.80;46.15;;;;;;;5.63;49.97;93471.98;1749292;81;21234;-61
2021/03/12 06:20:29;;;;;;;73.17;45.78;;;;;;;5.67;49.96;93467.92;1889941;76;22242;-61
2021/03/12 06:22:58;;;;;;;67.17;38.90;;;;;;;5.75;50.19;93476.60;1809588;78;21092;-60
2021/03/12 06:25:32;;;;;;;69.12;40.25;;;;;;;5.88;50.54;93475.33;1849660;76;21183;-62
2021/03/12 06:28:19;;;;;;;74.00;41.63;;;;;;;5.93;50.63;93478.09;1865736;76;21049;-62
2021/03/12 06:31:27;;;;;;;65.60;37.83;;;;;;;5.99;50.41;93471.58;1790373;80;21049;-61
2021/03/12 06:34:13;;;;;;;57.55;34.92;;;;;;;6.04;50.57;93484.66;1766795;80;21143;-61
2021/03/12 06:37:00;;;;;;;76.93;48.53;;;;;;;6.10;50.51;93477.98;1870433;75;28365;-60
2021/03/12 06:39:34;;;;;;;108.10;59.13;;;;;;;6.17;50.37;93481.20;1756419;81;21143;-60
2021/03/12 06:42:08;;;;;;;101.15;55.45;;;;;;;6.24;49.78;93465.16;1814122;78;21555;-61
2021/03/12 06:44:38;;;;;;;76.02;41.80;;;;;;;6.31;50.06;93464.27;1761300;81;21150;-61
2021/03/12 06:47:07;;;;;;;43.05;30.20;;;;;;;6.36;50.55;93480.67;1759452;79;21153;-57
2021/03/12 06:49:56;;;;;;;44.65;24.60;;;;;;;6.41;50.02;93488.27;1731323;82;21124;-57
2021/03/12 06:52:37;;;;;;;104.23;56.68;;;;;;;6.51;49.38;93496.04;1750482;79;21181;-60
2021/03/12 06:55:08;;;;;;;90.35;53.08;;;;;;;6.62;49.28;93501.84;1745191;81;21386;-59
2021/03/12 06:58:09;;;;;;;56.55;34.27;;;;;;;6.69;49.04;93502.17;1858518;76;22441;-65
2021/03/12 07:00:50;;;;;;;53.87;31.90;;;;;;;6.61;48.82;93513.21;1814630;78;21109;-61
2021/03/12 07:03:24;;;;;;;55.28;32.23;;;;;;;6.65;49.00;93507.77;1810503;78;21366;-60
2021/03/12 07:08:49;;;;;;;69.77;38.33;;;;;;;6.96;48.56;93528.17;1860005;76;22681;-59
2021/03/12 07:11:26;;;;;;;94.60;42.23;;;;;;;6.98;48.60;93535.31;1836135;78;21180;-59
2021/03/12 07:14:12;;;;;;;71.55;40.05;;;;;;;7.02;48.60;93538.06;1812806;78;21250;-60
2021/03/12 07:16:43;;;;;;;44.18;24.63;;;;;;;7.08;48.66;93553.42;1781409;76;21596;-60
2021/03/12 07:19:11;;;;;;;33.25;21.87;;;;;;;7.15;48.81;93568.16;1809864;78;21151;-58
2021/03/12 07:21:41;;;;;;;36.35;14.68;;;;;;;7.19;49.03;93570.13;1839816;78;21435;-59
2021/03/12 07:24:10;;;;;;;19.65;13.38;;;;;;;7.28;49.23;93569.38;1833684;78;21098;-62
2021/03/12 07:26:48;;;;;;;17.35;11.90;;;;;;;7.27;49.17;93570.59;1821572;78;21460;-60
2021/03/12 07:29:18;;;;;;;22.48;13.88;;;;;;;7.33;49.29;93588.70;1794607;78;21621;-59
2021/03/12 07:31:56;;;;;;;22.73;14.23;;;;;;;7.40;49.42;93599.95;1828989;78;22171;-60
2021/03/12 07:34:33;;;;;;;18.55;13.15;;;;;;;7.42;49.35;93600.26;1829113;78;21164;-58
2021/03/12 07:37:03;;;;;;;16.10;10.88;;;;;;;7.41;49.79;93599.52;1829474;76;21151;-60
2021/03/12 07:39:40;;;;;;;10.88;8.75;;;;;;;7.33;49.70;93591.43;1827582;77;22046;-61
2021/03/12 07:42:10;;;;;;;16.45;8.58;;;;;;;7.26;49.35;93592.33;1770142;78;21157;-60
2021/03/12 07:44:49;;;;;;;10.95;8.25;;;;;;;7.20;49.23;93577.74;1754987;78;21497;-60
2021/03/12 07:47:26;;;;;;;12.28;6.67;;;;;;;7.10;49.56;93592.00;1821066;76;21231;-59
2021/03/12 07:49:55;;;;;;;12.73;9.33;;;;;;;7.02;49.12;93589.23;1802813;79;21085;-60
2021/03/12 07:52:50;;;;;;;17.30;8.98;;;;;;;6.90;49.32;93598.33;1797563;79;21218;-61
2021/03/12 07:55:45;;;;;;;9.58;7.92;;;;;;;6.85;49.44;93590.73;1824550;78;21154;-57
2021/03/12 07:58:50;;;;;;;14.25;10.30;;;;;;;6.81;49.67;93587.36;1786777;78;21452;-61
2021/03/12 08:01:20;;;;;;;9.73;6.92;;;;;;;6.79;49.63;93603.45;1751111;79;21762;-60
2021/03/12 08:03:51;;;;;;;9.35;6.50;;;;;;;6.79;49.52;93597.98;1756742;80;21164;-62
2021/03/12 08:06:33;;;;;;;7.75;6.08;;;;;;;6.83;49.42;93608.16;1856001;76;22249;-61
2021/03/12 08:09:34;;;;;;;5.17;4.72;;;;;;;6.79;49.37;93607.55;1829478;77;21165;-63
2021/03/12 08:12:40;;;;;;;6.47;5.83;;;;;;;6.82;49.31;93598.44;1822339;78;21213;-58
2021/03/12 08:15:30;;;;;;;6.30;5.40;;;;;;;6.94;49.48;93593.48;1829949;76;21196;-61
2021/03/12 08:18:05;;;;;;;6.97;5.25;;;;;;;7.01;49.24;93598.06;1813140;76;21315;-64
2021/03/12 08:20:40;;;;;;;5.78;4.30;;;;;;;7.05;49.07;93601.41;1821996;78;21616;-58
2021/03/12 08:23:16;;;;;;;11.45;5.58;;;;;;;7.08;49.25;93601.12;1815215;78;21159;-63
2021/03/12 08:25:50;;;;;;;8.90;7.30;;;;;;;7.03;49.28;93574.38;1807282;78;21269;-59
2021/03/12 08:28:27;;;;;;;15.45;9.28;;;;;;;6.97;49.17;93596.08;1806426;78;21137;-67
2021/03/12 08:30:59;;;;;;;6.53;5.08;;;;;;;6.95;48.79;93584.06;1830907;77;21180;-63
2021/03/12 08:33:38;;;;;;;10.28;5.53;;;;;;;6.93;48.40;93609.13;1765948;80;22421;-61
2021/03/12 08:36:27;;;;;;;5.80;3.92;;;;;;;6.87;48.62;93608.81;1847501;75;21197;-62
2021/03/12 08:39:29;;;;;;;6.10;5.50;;;;;;;6.82;48.78;93600.58;1819115;78;22193;-65
2021/03/12 08:42:18;;;;;;;7.67;5.75;;;;;;;6.83;48.93;93599.96;1848615;77;21507;-61
2021/03/12 08:44:57;;;;;;;9.23;6.47;;;;;;;6.88;48.40;93595.30;1839078;77;21188;-59
2021/03/12 08:47:27;;;;;;;7.90;6.53;;;;;;;6.92;48.87;93610.32;1823867;76;21171;-62
2021/03/12 08:49:56;;;;;;;7.92;6.75;;;;;;;6.96;48.61;93591.05;1803732;78;22471;-61
2021/03/12 08:52:27;;;;;;;7.08;6.03;;;;;;;6.96;48.54;93605.49;1795401;79;21255;-59
2021/03/12 08:54:56;;;;;;;6.17;5.65;;;;;;;7.07;48.63;93585.92;1793233;79;21190;-66
2021/03/12 08:57:27;;;;;;;12.78;8.95;;;;;;;7.22;48.39;93588.39;1791423;79;21601;-63
2021/03/12 09:00:11;;;;;;;8.03;7.08;;;;;;;7.41;48.33;93598.14;1794061;78;21613;-71
2021/03/12 09:02:52;;;;;;;7.28;5.83;;;;;;;7.62;47.15;93582.79;1877950;75;22751;-65
2021/03/12 09:05:30;;;;;;;9.38;7.17;;;;;;;7.65;47.34;93588.12;1770894;79;21121;-66
2021/03/12 09:08:28;;;;;;;7.95;6.47;;;;;;;7.71;47.38;93593.13;1756157;80;21396;-65
2021/03/12 09:11:21;;;;;;;4.92;4.53;;;;;;;7.75;47.18;93588.88;1779421;79;21631;-63
2021/03/12 09:13:58;;;;;;;7.03;5.97;;;;;;;7.79;46.97;93591.63;1791736;79;21186;-63
2021/03/12 09:16:29;;;;;;;8.50;7.58;;;;;;;7.84;47.21;93591.00;1746403;80;21182;-60
2021/03/12 09:19:00;;;;;;;7.92;6.95;;;;;;;7.91;47.33;93603.00;1761260;79;21206;-61
2021/03/12 09:21:30;;;;;;;10.45;8.33;;;;;;;7.93;47.35;93600.59;1764482;79;21174;-63
2021/03/12 09:24:00;;;;;;;8.03;7.00;;;;;;;7.89;47.38;93594.48;1787007;78;21565;-62
2021/03/12 09:26:34;;;;;;;6.55;5.95;;;;;;;7.85;47.67;93591.16;1782558;80;28846;-61
2021/03/12 09:29:08;;;;;;;10.10;9.17;;;;;;;7.84;47.70;93583.38;1795325;79;21198;-60
2021/03/12 09:31:41;;;;;;;7.12;6.40;;;;;;;7.89;47.55;93573.20;1796736;79;21159;-61
2021/03/12 09:34:14;;;;;;;7.60;6.65;;;;;;;7.97;47.29;93573.03;1781898;80;21488;-60
2021/03/12 09:36:51;;;;;;;11.57;7.58;;;;;;;8.06;47.25;93566.94;1753709;80;21581;-62
2021/03/12 09:39:27;;;;;;;6.42;5.33;;;;;;;8.13;47.25;93570.75;1770459;79;21207;-60
2021/03/12 09:42:03;;;;;;;15.53;8.35;;;;;;;8.16;46.86;93565.72;1785498;79;21650;-61
2021/03/12 09:44:31;;;;;;;7.90;6.37;;;;;;;8.23;46.94;93560.55;1768799;79;21210;-61
2021/03/12 09:47:09;;;;;;;5.78;5.25;;;;;;;8.31;47.02;93551.55;1774631;79;21418;-62
2021/03/12 09:49:42;;;;;;;8.05;5.95;;;;;;;8.40;46.85;93554.25;1786927;80;21115;-60
2021/03/12 09:52:16;;;;;;;9.63;3.92;;;;;;;8.55;46.53;93553.75;1780018;79;21259;-62
2021/03/12 09:54:49;;;;;;;4.72;3.80;;;;;;;8.62;45.63;93547.92;1765465;80;21642;-63
2021/03/12 09:57:20;;;;;;;3.02;2.83;;;;;;;8.78;45.94;93566.00;1732751;81;21630;-62
2021/03/12 09:59:51;;;;;;;4.70;3.20;;;;;;;9.06;44.99;93564.03;1763907;81;21439;-61
2021/03/12 10:02:33;;;;;;;3.40;3.17;;;;;;;9.46;44.75;93551.41;1800132;78;22929;-61
2021/03/12 10:05:05;;;;;;;3.60;2.87;;;;;;;9.75;44.31;93551.49;1745661;79;21225;-60
2021/03/12 10:07:46;;;;;;;5.30;3.20;;;;;;;10.25;42.64;93558.70;1853757;76;22196;-61
2021/03/12 10:10:32;;;;;;;3.22;2.40;;;;;;;10.39;42.61;93546.19;1819579;77;21532;-59
2021/03/12 10:13:05;;;;;;;3.95;3.55;;;;;;;10.58;42.02;93551.63;1812036;76;21253;-62
2021/03/12 10:15:37;;;;;;;5.30;3.70;;;;;;;10.66;41.78;93554.12;1813740;78;21167;-60
2021/03/12 10:18:21;;;;;;;3.70;2.83;;;;;;;10.85;41.92;93553.44;1798477;77;21086;-61
2021/03/12 10:20:52;;;;;;;7.47;2.60;;;;;;;11.35;41.04;93552.16;1860746;77;22117;-62
2021/03/12 10:23:21;;;;;;;6.70;2.90;;;;;;;11.95;39.79;93553.56;1863341;75;21090;-61
2021/03/12 10:25:49;;;;;;;3.20;2.52;;;;;;;12.55;38.49;93544.52;1797132;78;21147;-62
2021/03/12 10:28:20;;;;;;;4.58;2.40;;;;;;;12.94;37.52;93551.88;1785629;78;21095;-60
2021/03/12 10:30:59;;;;;;;2.58;2.37;;;;;;;12.86;36.89;93545.28;1781223;79;21494;-63
2021/03/12 10:33:30;;;;;;;2.83;2.62;;;;;;;12.65;37.21;93543.86;1762497;80;21225;-62
2021/03/12 10:36:04;;;;;;;3.80;3.42;;;;;;;12.24;37.70;93534.81;1775195;79;21126;-63
2021/03/12 10:38:34;;;;;;;13.35;3.60;;;;;;;12.07;38.22;93543.54;1772768;79;21923;-62
2021/03/12 10:41:19;;;;;;;5.85;3.90;;;;;;;12.32;38.16;93538.67;1795997;79;21182;-62
2021/03/12 10:44:02;;;;;;;8.38;4.90;;;;;;;12.55;38.01;93529.34;1770691;80;21178;-70
2021/03/12 10:46:31;;;;;;;11.00;7.03;;;;;;;12.63;37.56;93540.83;1766413;79;21241;-61
2021/03/12 10:49:02;;;;;;;5.75;2.83;;;;;;;12.28;38.10;93533.23;1747054;80;21593;-65
2021/03/12 10:51:40;;;;;;;5.50;2.87;;;;;;;11.96;38.68;93532.41;1740779;82;23289;-62
2021/03/12 10:56:49;;;;;;;6.53;4.78;;;;;;;11.48;39.70;93537.42;1854258;75;22305;-62
2021/03/12 10:59:18;;;;;;;8.50;3.75;;;;;;;11.46;40.09;93542.05;1836772;78;21156;-64
2021/03/12 11:01:49;;;;;;;6.30;5.80;;;;;;;11.41;39.94;93559.27;1834922;76;21853;-64
2021/03/12 11:04:18;;;;;;;4.55;4.15;;;;;;;11.19;40.31;93558.20;1830606;77;21121;-64
2021/03/12 11:06:49;;;;;;;6.78;2.83;;;;;;;11.08;40.55;93558.80;1807676;79;21081;-62
2021/03/12 11:09:18;;;;;;;5.28;2.30;;;;;;;11.05;39.96;93560.36;1807509;78;21156;-63
2021/03/12 11:11:46;;;;;;;5.22;2.22;;;;;;;11.56;39.30;93573.73;1807634;79;21049;-62
2021/03/12 11:14:15;;;;;;;2.10;2.00;;;;;;;11.75;39.08;93556.33;1834364;78;22205;-61
2021/03/12 11:16:43;;;;;;;3.40;2.40;;;;;;;11.83;38.51;93556.04;1840199;77;21176;-65
2021/03/12 11:19:12;;;;;;;4.72;2.85;;;;;;;11.91;38.78;93566.16;1840790;78;21125;-62
2021/03/12 11:21:42;;;;;;;3.80;3.40;;;;;;;12.15;38.71;93563.17;1840673;77;21153;-61
2021/03/12 11:24:13;;;;;;;4.05;3.42;;;;;;;12.57;38.08;93575.14;1840958;77;21593;-62
2021/03/12 11:26:43;;;;;;;7.40;3.50;;;;;;;12.95;37.53;93599.58;1840784;78;21577;-62
2021/03/12 11:29:13;;;;;;;19.92;11.03;;;;;;;12.80;37.22;93594.16;1840059;78;21180;-60
2021/03/12 11:31:42;;;;;;;9.28;6.58;;;;;;;12.39;37.62;93605.80;1840847;78;21141;-63
2021/03/12 11:34:11;;;;;;;7.97;6.55;;;;;;;11.85;38.75;93623.82;1840457;77;21152;-60
2021/03/12 11:36:41;;;;;;;7.60;6.00;;;;;;;11.36;39.69;93628.77;1840608;78;21577;-61
2021/03/12 11:39:11;;;;;;;10.38;7.40;;;;;;;10.87;40.41;93643.90;1810940;78;22535;-64
2021/03/12 11:41:41;;;;;;;14.23;7.80;;;;;;;10.51;41.54;93640.75;1840680;77;21160;-61
2021/03/12 11:44:09;;;;;;;9.85;6.20;;;;;;;10.26;42.23;93640.52;1840768;77;21055;-61
2021/03/12 11:46:37;;;;;;;8.23;6.20;;;;;;;9.98;43.06;93637.84;1840927;78;21149;-61
2021/03/12 11:49:06;;;;;;;7.65;6.03;;;;;;;9.77;43.75;93645.78;1812258;78;21636;-63
2021/03/12 11:51:38;;;;;;;14.55;7.58;;;;;;;9.67;44.17;93645.69;1806257;78;21195;-64
2021/03/12 11:54:09;;;;;;;10.15;4.65;;;;;;;9.55;44.60;93654.30;1792413;79;27895;-61
2021/03/12 11:56:37;;;;;;;8.45;4.95;;;;;;;9.47;44.71;93666.09;1794232;79;21626;-61
2021/03/12 11:59:05;;;;;;;6.12;4.53;;;;;;;9.37;45.07;93644.80;1791797;80;21117;-61
2021/03/12 12:01:35;;;;;;;6.60;4.60;;;;;;;9.33;45.18;93658.53;1791797;80;22243;-61